Saturday, August 18, 2018, 1:57 PM GMT
Back to Local

CWZS, Amqui , Que.

Location: , , Canada Lat: 48.467
Local Time: 1:57 PM GMT (13:57 GMT) Lon: -67.433
Time Zone: GMT Elev: 544 ft

Show me the last for .
Show Coded

Time T Td Feel RH Dir Speed Gust Alt SLP Vis Weather Sky Remarks
2018-08-18 13:00 62 59 - 89 320° 2 - - 29.91 0 None
2018-08-18 12:00 59 58 - 94 270° 1 - - 29.91 0 None
2018-08-18 11:00 58 57 - 97 110° 1 - - 29.91 0 None
2018-08-18 10:00 58 57 - 97 160° 2 - - 29.91 0 None
2018-08-18 09:00 58 57 - 95 110° 2 - - 29.89 0 None
2018-08-18 08:00 59 56 - 90 350° 1 - - 29.89 0 None
2018-08-18 07:00 59 58 - 96 160° 2 - - 29.90 0 1-hr Precip Total: 0.04"
2018-08-18 06:00 60 58 - 94 100° 1 - - 29.92 0 1-hr Precip Total: 0.12"
2018-08-18 05:00 60 59 - 95 170° 2 - - 29.92 0 None
2018-08-18 04:00 61 58 - 90 360° 3 - - 29.94 0 None
2018-08-18 03:00 63 58 - 83 - Calm - - 29.92 0 None
2018-08-18 02:00 63 58 - 82 310° 1 - - 29.94 0 None
2018-08-18 01:00 65 58 - 78 140° 1 - - 29.94 0 None
2018-08-18 00:00 65 58 - 76 320° 1 - - 29.93 0 None
2018-08-17 23:00 69 56 - 65 80° 1 - - 29.93 0 None
2018-08-17 22:00 71 56 76 60 320° 3 - - 29.94 0 None
2018-08-17 21:00 73 53 76 49 320° 7 - - 29.95 0 None
2018-08-17 20:00 75 49 76 40 340° 7 - - 29.96 0 None
2018-08-17 18:00 74 49 76 42 220° 2 - - 29.98 0 None
2018-08-17 16:00 71 50 76 48 160° 3 - - 30.03 0 None
2018-08-17 15:00 67 49 - 51 200° 5 - - 30.05 0 None
2018-08-17 14:00 63 49 - 61 150° 3 - - 30.07 0 None

Support USWX by starting your Amazon purchase here.